Latest Weather Observations for Coles Point

IDS60801

Issued at 2:32 pm CDT Sunday 29 March 2015 (issued every 30 minutes, with the page automatically refreshed every 10 minutes)

About weather observations | Map of weather stations | Latest weather observations for SA | Other Formats
Station Details ID: 018191 Name: COLES POINT Lat: -34.37 Lon: 135.37 Height: 28.0 m
Data from the previous 72 hours. | See also: Recent months at Coles Point
Date/Time
CDT
Temp
°C
App
Temp
°C
Dew
Point
Rel
Hum
%
Delta-T
°C
Wind Press
QNH
hPa
Press
MSL
hPa
Rain
since 9 am
mm
Dir
 
Spd
km/h
Gust
km/h
Spd
kts
Gust
kts
29/02:30pm 20.8 19.0 12.2 58 4.8 WSW 13 17 7 9 1022.5 1022.4 0.0
29/02:00pm 20.7 18.4 12.9 61 4.4 W 17 20 9 11 1023.0 1022.9 0.0
29/01:30pm 21.1 19.2 13.0 60 4.6 W 15 19 8 10 1023.2 1023.1 0.0
29/01:00pm 21.1 19.5 12.8 59 4.7 WNW 13 17 7 9 1023.3 1023.2 0.0
29/12:30pm 21.2 19.9 12.6 58 4.9 NW 11 15 6 8 1023.3 1023.2 0.0
29/12:00pm 20.7 19.4 12.4 59 4.7 WNW 11 17 6 9 1023.3 1023.2 0.0
29/11:30am 19.8 19.0 11.8 60 4.4 WSW 7 9 4 5 1023.4 1023.3 0.0
29/11:00am 20.0 19.1 12.7 63 4.1 W 9 11 5 6 1023.5 1023.4 0.0
29/10:30am 19.6 18.9 12.1 62 4.2 WSW 7 9 4 5 1023.3 1023.2 0.0
29/10:00am 19.6 19.1 12.8 65 3.8 NW 7 11 4 6 1023.2 1023.1 0.0
29/09:30am 19.4 18.8 12.2 63 4.0 NW 7 11 4 6 1023.2 1023.1 0.0
29/09:00am 18.6 18.3 11.4 63 3.9 NE 4 7 2 4 1022.8 1022.7 0.0
29/08:30am 17.0 16.0 10.4 65 3.5 NE 6 7 3 4 1022.5 1022.4 0.0
29/08:00am 16.0 15.7 10.1 68 3.1 NNE 2 6 1 3 1022.4 1022.3 0.0
29/07:30am 15.7 13.7 10.0 69 3.0 NE 11 11 6 6 1022.2 1022.1 0.0
29/07:00am 15.3 14.0 10.1 71 2.7 ENE 7 7 4 4 1021.8 1021.7 0.0
29/06:30am 15.0 13.3 10.0 72 2.6 ENE 9 9 5 5 1021.3 1021.2 0.0
29/06:00am 14.9 13.5 9.7 71 2.7 NE 7 9 4 5 1021.3 1021.2 0.0
29/05:30am 16.6 14.7 10.5 67 3.2 NNE 11 13 6 7 1021.0 1020.9 0.0
29/05:00am 16.5 14.5 10.1 66 3.4 NNE 11 13 6 7 1020.9 1020.8 0.0
29/04:30am 15.8 14.5 10.1 69 3.0 NE 7 9 4 5 1020.8 1020.7 0.0
29/04:00am 16.2 14.9 9.8 66 3.3 ENE 7 7 4 4 1020.7 1020.6 0.0
29/03:30am 16.5 14.9 10.1 66 3.4 NNE 9 11 5 6 1021.0 1020.9 0.0
29/03:00am 16.1 14.8 9.8 66 3.3 NNE 7 11 4 6 1020.9 1020.8 0.0
29/02:30am 15.6 13.7 10.6 72 2.6 NE 11 13 6 7 1021.0 1020.9 0.0
29/02:00am 15.5 14.1 10.9 74 2.4 ENE 9 11 5 6 1021.1 1021.0 0.0
29/01:30am 15.5 14.2 11.1 75 2.3 ENE 9 9 5 5 1021.3 1021.2 0.0
29/01:00am 16.3 15.1 11.7 74 2.5 NNE 9 11 5 6 1021.6 1021.5 0.0
29/12:30am 16.1 15.2 11.5 74 2.5 NNE 7 7 4 4 1021.8 1021.7 0.0
29/12:00am 15.5 14.8 11.5 77 2.1 NE 6 7 3 4 1021.9 1021.8 0.0
 
Date/Time
CDT
Temp
°C
App
Temp
°C
Dew
Point
Rel
Hum
%
Delta-T
°C
Wind Press
QNH
hPa
Press
MSL
hPa
Rain
since 9 am
mm
Dir
 
Spd
km/h
Gust
km/h
Spd
kts
Gust
kts
28/11:30pm 15.0 13.6 11.0 77 2.1 ENE 9 11 5 6 1021.8 1021.7 0.0
28/11:00pm 15.8 16.6 12.4 80 1.9 CALM 0 0 0 0 1022.0 1021.9 0.0
28/10:30pm 14.7 15.0 10.9 78 2.0 CALM 0 0 0 0 1022.0 1021.9 0.0
28/10:00pm 15.9 16.1 11.7 76 2.3 SSW 2 6 1 3 1022.0 1021.9 0.0
28/09:30pm 16.4 16.9 11.6 73 2.6 CALM 0 4 0 2 1021.9 1021.8 0.0
28/09:00pm 16.9 16.3 11.8 72 2.8 W 6 7 3 4 1021.7 1021.6 0.0
28/08:30pm 16.9 16.0 11.2 69 3.1 W 7 7 4 4 1021.4 1021.3 0.0
28/08:00pm 16.9 16.1 11.0 68 3.2 W 6 7 3 4 1021.3 1021.2 0.0
28/07:30pm 17.6 16.2 10.9 65 3.6 WNW 9 13 5 7 1021.3 1021.2 0.0
28/07:00pm 17.9 17.1 11.2 65 3.6 WNW 6 9 3 5 1021.2 1021.1 0.0
28/06:30pm 18.2 16.8 10.8 62 4.0 WNW 9 13 5 7 1021.2 1021.1 0.0
28/06:00pm 18.9 17.8 10.5 58 4.5 W 7 11 4 6 1020.9 1020.8 0.0
28/05:30pm 19.3 17.4 8.9 51 5.4 NW 9 13 5 7 1020.7 1020.6 0.0
28/05:00pm 19.5 16.8 8.8 50 5.6 WNW 13 19 7 10 1021.0 1020.9 0.0
28/04:30pm 20.7 16.1 6.6 40 7.1 WNW 20 24 11 13 1021.2 1021.1 0.0
28/04:00pm 20.5 16.9 8.2 45 6.4 NW 17 24 9 13 1021.3 1021.2 0.0
28/03:30pm 21.6 17.2 6.7 38 7.6 NW 19 22 10 12 1021.3 1021.2 0.0
28/03:00pm 21.3 18.0 8.2 43 6.8 WNW 15 19 8 10 1021.2 1021.1 0.0
28/02:30pm 20.4 18.0 9.9 51 5.6 NW 13 17 7 9 1021.9 1021.8 0.0
28/02:00pm 21.1 18.4 10.3 50 5.9 WNW 15 19 8 10 1022.2 1022.1 0.0
28/01:30pm 22.3 19.2 8.8 42 7.2 NW 15 20 8 11 1022.4 1022.3 0.0
28/01:00pm 20.8 18.1 9.1 47 6.2 NNE 13 19 7 10 1023.0 1022.9 0.0
28/12:30pm 19.9 17.0 9.8 52 5.4 NNE 15 22 8 12 1023.3 1023.2 0.0
28/12:00pm 18.8 15.2 9.8 56 4.8 NE 19 22 10 12 1023.5 1023.4 0.0
28/11:30am 17.7 14.4 11.0 65 3.6 NE 19 24 10 13 1024.0 1023.9 0.0
28/11:00am 16.6 13.4 11.1 70 3.0 NE 19 24 10 13 1024.3 1024.2 0.0
28/10:30am 15.9 12.7 11.3 74 2.5 NNE 19 26 10 14 1024.5 1024.4 0.0
28/10:00am 14.7 11.4 10.9 78 2.0 NNE 19 24 10 13 1024.6 1024.5 0.0
28/09:30am 13.7 11.3 11.4 86 1.2 NE 15 19 8 10 1024.7 1024.6 0.0
28/09:00am 13.2 10.4 11.4 89 0.9 NE 17 20 9 11 1024.7 1024.6 0.0
28/08:30am 12.9 10.2 11.6 92 0.7 NNE 17 19 9 10 1024.5 1024.4 0.0
28/08:00am 11.7 9.4 10.4 92 0.7 NE 13 15 7 8 1024.1 1024.0 0.0
28/07:30am 11.5 9.5 10.1 91 0.7 NE 11 15 6 8 1023.9 1023.8 0.0
28/07:00am 11.7 9.4 10.3 91 0.7 NE 13 17 7 9 1024.0 1023.9 0.0
28/06:30am 11.6 9.2 10.0 90 0.8 NE 13 15 7 8 1023.8 1023.7 0.0
28/06:00am 11.7 9.3 9.9 89 0.9 NNE 13 15 7 8 1023.9 1023.8 0.0
28/05:30am 11.7 9.6 9.8 88 1.0 NE 11 13 6 7 1023.8 1023.7 0.0
28/05:00am 11.8 9.7 9.7 87 1.1 NE 11 13 6 7 1024.1 1024.0 0.0
28/04:30am 11.3 9.1 9.2 87 1.0 ENE 11 11 6 6 1024.4 1024.3 0.0
28/04:00am 11.6 9.4 9.3 86 1.2 ENE 11 13 6 7 1024.6 1024.5 0.0
28/03:30am 11.7 9.5 9.3 85 1.2 ENE 11 13 6 7 1025.0 1024.9 0.0
28/03:00am 12.2 10.1 9.6 84 1.3 ENE 11 15 6 8 1025.2 1025.1 0.0
28/02:30am 11.3 9.4 9.2 87 1.0 ENE 9 11 5 6 1025.5 1025.4 0.0
28/02:00am 10.9 9.4 9.0 88 0.9 ENE 7 11 4 6 1025.8 1025.7 0.0
28/01:30am 10.9 8.9 8.7 86 1.1 ENE 9 9 5 5 1026.0 1025.9 0.0
28/01:00am 11.3 9.4 9.2 87 1.1 ENE 9 13 5 7 1026.3 1026.2 0.0
28/12:30am 10.1 7.5 7.9 86 1.1 E 11 13 6 7 1026.2 1026.1 0.0
28/12:00am 10.4 8.2 8.0 85 1.2 ESE 9 11 5 6 1027.1 1027.0 0.0
 
Date/Time
CDT
Temp
°C
App
Temp
°C
Dew
Point
Rel
Hum
%
Delta-T
°C
Wind Press
QNH
hPa
Press
MSL
hPa
Rain
since 9 am
mm
Dir
 
Spd
km/h
Gust
km/h
Spd
kts
Gust
kts
27/11:30pm 11.0 8.6 8.6 85 1.2 SE 11 11 6 6 1027.3 1027.2 0.0
27/11:00pm 11.2 9.7 8.4 83 1.4 SE 6 7 3 4 1027.2 1027.1 0.0
27/10:30pm 12.5 10.6 9.1 80 1.7 SE 9 9 5 5 1027.3 1027.2 0.0
27/10:00pm 14.2 12.1 9.6 74 2.4 SE 11 13 6 7 1027.3 1027.2 0.0
27/09:30pm 15.5 12.8 10.3 71 2.7 SSE 15 19 8 10 1027.5 1027.4 0.0
27/09:00pm 15.7 12.5 10.0 69 3.0 SSE 17 20 9 11 1027.2 1027.1 0.0
27/08:30pm 15.8 12.6 10.1 69 3.0 S 17 22 9 12 1027.2 1027.1 0.0
27/08:00pm 15.9 12.5 10.4 70 2.9 S 19 24 10 13 1027.3 1027.2 0.0
27/07:30pm 16.0 12.8 10.1 68 3.1 S 17 20 9 11 1026.8 1026.7 0.0
27/07:00pm 16.3 13.2 10.4 68 3.1 S 17 20 9 11 1026.7 1026.6 0.0
27/06:30pm 16.3 12.8 10.2 67 3.2 S 19 22 10 12 1026.7 1026.6 0.0
27/06:00pm 16.7 13.2 10.3 66 3.4 SSW 19 22 10 12 1026.6 1026.5 0.0
27/05:30pm 17.1 14.1 10.5 65 3.5 S 17 24 9 13 1026.8 1026.7 0.0
27/05:00pm 17.1 14.2 9.8 62 3.8 S 15 20 8 11 1026.9 1026.8 0.0
27/04:30pm 16.9 14.3 10.7 67 3.3 SSW 15 20 8 11 1027.0 1026.9 0.0
27/04:00pm 17.1 13.9 10.0 63 3.7 SW 17 20 9 11 1027.3 1027.2 0.0
27/03:30pm 17.1 13.8 9.5 61 3.9 WSW 17 20 9 11 1027.5 1027.4 0.0
27/03:00pm 17.3 14.7 9.2 59 4.2 SW 13 17 7 9 1027.6 1027.5 0.0
27/02:30pm 17.3 15.0 9.0 58 4.3 SW 11 17 6 9 1027.9 1027.8 0.0
27/02:00pm 17.0 14.4 9.4 61 4.0 SSW 13 19 7 10 1028.4 1028.3 0.0
27/01:30pm 16.8 13.4 9.2 61 3.9 SW 17 20 9 11 1028.9 1028.8 0.0
27/01:00pm 16.9 13.9 9.1 60 4.0 SW 15 19 8 10 1029.2 1029.1 0.0
27/12:30pm 16.8 14.2 9.2 61 3.9 SW 13 19 7 10 1029.5 1029.4 0.0
27/12:00pm 17.1 15.3 9.3 60 4.0 SSW 9 17 5 9 1029.7 1029.6 0.0
27/11:30am 16.5 14.4 9.7 64 3.5 SW 11 15 6 8 1030.2 1030.1 0.0
27/11:00am 16.6 15.0 8.1 57 4.3 NE 6 11 3 6 1030.6 1030.5 0.0
27/10:30am 16.3 14.7 8.0 58 4.2 E 6 9 3 5 1030.6 1030.5 0.0
27/10:00am 15.9 14.4 8.4 61 3.8 E 6 9 3 5 1030.5 1030.4 0.0
27/09:30am 14.6 12.4 9.4 71 2.7 SE 11 15 6 8 1030.5 1030.4 0.0
27/09:00am 14.7 11.8 9.7 72 2.6 SSE 15 19 8 10 1030.4 1030.3 0.0
27/08:30am 13.9 12.6 9.1 73 2.4 SSE 6 7 3 4 1030.3 1030.2 0.0
27/08:00am 13.4 12.1 9.1 75 2.2 SSE 6 6 3 3 1030.0 1029.9 0.0
27/07:30am 13.3 11.8 9.2 76 2.1 SE 7 15 4 8 1029.7 1029.6 0.0
27/07:00am 13.3 11.9 9.4 77 2.0 SE 7 9 4 5 1029.6 1029.5 0.0
27/06:30am 13.9 13.2 9.9 77 2.1 SW 4 11 2 6 1029.3 1029.2 0.0
27/06:00am 13.5 13.1 9.7 78 1.9 W 2 4 1 2 1029.1 1029.0 0.0
27/05:30am 13.8 13.8 9.8 77 2.0 CALM 0 2 0 1 1028.7 1028.6 0.0
27/05:00am 13.9 13.1 9.5 75 2.3 W 4 4 2 2 1028.9 1028.8 0.0
27/04:30am 14.2 12.4 9.6 74 2.3 WSW 9 13 5 7 1029.0 1028.9 0.0
27/04:00am 13.8 13.2 8.8 72 2.5 NNE 2 2 1 1 1029.0 1028.9 0.0
27/03:30am 14.0 12.5 9.0 72 2.5 NNE 7 7 4 4 1029.2 1029.1 0.0
27/03:00am 13.9 12.4 9.1 73 2.4 ENE 7 11 4 6 1029.3 1029.2 0.0
27/02:30am 13.9 12.5 8.9 72 2.5 E 6 7 3 4 1029.5 1029.4 0.0
27/02:00am 14.1 12.6 8.5 69 2.8 SE 6 7 3 4 1029.6 1029.5 0.0
27/01:30am 14.6 13.0 8.1 65 3.2 SSE 6 9 3 5 1029.7 1029.6 0.0
27/01:00am 14.7 12.2 8.0 64 3.3 SSW 11 17 6 9 1029.8 1029.7 0.0
27/12:30am 14.6 10.4 7.4 62 3.5 S 19 22 10 12 1029.7 1029.6 0.0
27/12:00am 14.0 12.2 7.3 64 3.3 E 6 7 3 4 1029.8 1029.7 0.0
 
Date/Time
CDT
Temp
°C
App
Temp
°C
Dew
Point
Rel
Hum
%
Delta-T
°C
Wind Press
QNH
hPa
Press
MSL
hPa
Rain
since 9 am
mm
Dir
 
Spd
km/h
Gust
km/h
Spd
kts
Gust
kts
26/11:30pm 14.0 12.1 6.8 62 3.5 S 6 6 3 3 1029.8 1029.7 0.0
26/11:00pm 14.9 13.0 7.5 61 3.7 S 7 9 4 5 1030.0 1029.9 0.0
26/10:30pm 15.1 11.6 7.4 60 3.8 SSW 15 24 8 13 1030.1 1030.0 0.0
26/10:00pm 14.7 11.3 6.0 56 4.2 S 13 17 7 9 1030.2 1030.1 0.0
26/09:30pm 15.4 11.7 6.4 55 4.3 S 15 19 8 10 1030.1 1030.0 0.0
26/09:00pm 15.4 11.7 6.2 54 4.4 S 15 19 8 10 1030.0 1029.9 0.0
26/08:30pm 15.0 11.6 5.8 54 4.4 S 13 19 7 10 1029.6 1029.5 0.0
26/08:00pm 15.2 12.3 6.5 56 4.2 S 11 15 6 8 1029.6 1029.5 0.0
26/07:30pm 15.3 11.4 7.1 58 4.0 S 17 24 9 13 1029.6 1029.5 0.0
26/07:00pm 15.7 11.6 6.2 53 4.6 SSW 17 24 9 13 1029.4 1029.3 0.0
26/06:30pm 15.8 11.3 6.8 55 4.4 SSW 20 28 11 15 1029.2 1029.1 0.0
26/06:00pm 16.4 12.0 6.5 52 4.8 S 19 24 10 13 1028.9 1028.8 0.0
26/05:30pm 15.9 11.3 6.3 53 4.6 S 20 28 11 15 1028.9 1028.8 0.0
26/05:00pm 16.3 10.5 6.2 51 4.9 SSW 26 32 14 17 1028.8 1028.7 0.0
26/04:30pm 17.6 12.1 3.9 40 6.4 SSW 22 28 12 15 1028.6 1028.5 0.0
26/04:00pm 16.9 11.1 4.3 43 5.9 SSW 24 32 13 17 1028.7 1028.6 0.0
26/03:30pm 17.3 12.6 6.2 48 5.4 SSW 20 26 11 14 1028.7 1028.6 0.0
26/03:00pm 17.0 11.8 5.3 46 5.6 SSW 22 28 12 15 1028.8 1028.7 0.0

Other Formats:

Comma delimited format used in spreadsheet applications
http://www.bom.gov.au/fwo/IDS60801/IDS60801.94658.axf

JavaScript Object Notation format (JSON) in row-major order
http://www.bom.gov.au/fwo/IDS60801/IDS60801.94658.json